AFR195 VTBS-LFPG
Flight info
| Callsign | AFR195 |
|---|---|
| Flight time | N/A |
| Altitude | 36000 |
| Route | VTBS/20L TARED P646 DOPID DCT CEA R460 LKN M890 JAL R594 DPN G333 MERUN L750 MURLI/N0499F380 L750 RANAH B801 NINOP B475 DOLOS B449 ETRAP B447 KRS B143 TUNEK/N0489F400 A909 RODAR M11 ERLEV T923 SUBUT T916 MATAL DCT REBLO UM11 CRM UL746 ODERO DCT OPT DCT SOKRU DCT ABETI DCT PEROL DCT RENKA L610 STAUB/N0402F240 L610 MAMOR DCT ASPAT DCT VIBOM DCT BETEX DCT IDOSA DCT TOLVU/N0486F410 DCT RAPOR DCT VEDUS |
| Aircraft | A359/H-SDE2E3GHIJ3J4J5LM1ORWXY/LB1D1 |
Departure
| Time | N/A |
|---|---|
| Airport | Suvarnabhumi Airport (VTBS) |
Arrival
| Time | 2026-05-06 08:24 |
|---|---|
| Airport | Charles de Gaulle International Airport (LFPG) |
| Time | Latitude | Longitude | Altitude | Speed | Heading |
|---|---|---|---|---|---|
| 2026-05-06 05:53 | 44.60906 | 26.50993 | 40044 ft | 471 kts | 297° |
| 2026-05-06 05:53 | 44.62283 | 26.46932 | 40042 ft | 471 kts | 297° |
| 2026-05-06 05:53 | 44.65032 | 26.38655 | 40048 ft | 471 kts | 296° |
| 2026-05-06 05:54 | 44.67778 | 26.30315 | 40049 ft | 470 kts | 296° |
| 2026-05-06 05:54 | 44.70528 | 26.21951 | 40048 ft | 470 kts | 296° |
| 2026-05-06 05:55 | 44.73270 | 26.13602 | 40044 ft | 469 kts | 296° |
| 2026-05-06 05:55 | 44.75999 | 26.05265 | 40052 ft | 469 kts | 296° |
| 2026-05-06 05:56 | 44.78705 | 25.96975 | 40045 ft | 469 kts | 296° |
| 2026-05-06 05:56 | 44.81420 | 25.88629 | 40046 ft | 468 kts | 296° |
| 2026-05-06 05:57 | 44.84129 | 25.80276 | 40042 ft | 467 kts | 296° |
| 2026-05-06 05:57 | 44.86823 | 25.71945 | 40041 ft | 467 kts | 296° |
| 2026-05-06 05:58 | 44.89512 | 25.63601 | 40042 ft | 467 kts | 296° |
| 2026-05-06 05:58 | 44.92180 | 25.55296 | 40040 ft | 466 kts | 296° |
| 2026-05-06 05:59 | 44.94853 | 25.46948 | 40038 ft | 466 kts | 296° |
| 2026-05-06 05:59 | 44.97518 | 25.38603 | 40038 ft | 466 kts | 296° |
| 2026-05-06 06:00 | 45.00193 | 25.30265 | 40036 ft | 465 kts | 297° |
| 2026-05-06 06:00 | 45.03176 | 25.22221 | 40035 ft | 464 kts | 300° |
| 2026-05-06 06:01 | 45.06291 | 25.14214 | 40036 ft | 464 kts | 300° |
| 2026-05-06 06:01 | 45.09355 | 25.06167 | 40029 ft | 464 kts | 299° |
| 2026-05-06 06:02 | 45.12370 | 24.98093 | 40032 ft | 464 kts | 299° |
| 2026-05-06 06:02 | 45.15371 | 24.89994 | 40032 ft | 464 kts | 299° |
| 2026-05-06 06:03 | 45.18366 | 24.81893 | 40036 ft | 464 kts | 298° |
| 2026-05-06 06:03 | 45.21362 | 24.73773 | 40033 ft | 464 kts | 298° |
| 2026-05-06 06:04 | 45.24348 | 24.65655 | 40028 ft | 464 kts | 298° |
| 2026-05-06 06:04 | 45.26828 | 24.58899 | 40028 ft | 464 kts | 298° |
| 2026-05-06 06:05 | 45.30289 | 24.49435 | 40028 ft | 464 kts | 298° |
| 2026-05-06 06:05 | 45.32776 | 24.42617 | 40028 ft | 464 kts | 298° |
| 2026-05-06 06:06 | 45.35741 | 24.34464 | 40029 ft | 464 kts | 298° |
| 2026-05-06 06:06 | 45.38678 | 24.26364 | 40024 ft | 464 kts | 298° |
| 2026-05-06 06:07 | 45.41632 | 24.18196 | 40022 ft | 464 kts | 298° |
| 2026-05-06 06:07 | 45.44580 | 24.10018 | 40023 ft | 464 kts | 298° |
| 2026-05-06 06:08 | 45.47517 | 24.01843 | 40027 ft | 463 kts | 297° |
| 2026-05-06 06:08 | 45.50432 | 23.93703 | 40029 ft | 463 kts | 297° |
| 2026-05-06 06:09 | 45.53354 | 23.85521 | 40031 ft | 463 kts | 297° |
| 2026-05-06 06:09 | 45.56277 | 23.77312 | 40027 ft | 463 kts | 297° |
| 2026-05-06 06:10 | 45.59190 | 23.69106 | 40027 ft | 462 kts | 297° |
| 2026-05-06 06:10 | 45.62071 | 23.60964 | 40027 ft | 462 kts | 297° |
| 2026-05-06 06:11 | 45.64958 | 23.52779 | 40022 ft | 461 kts | 297° |
| 2026-05-06 06:11 | 45.67839 | 23.44590 | 40020 ft | 461 kts | 297° |
| 2026-05-06 06:12 | 45.70721 | 23.36375 | 40016 ft | 461 kts | 297° |
| 2026-05-06 06:12 | 45.73590 | 23.28169 | 40022 ft | 461 kts | 297° |
| 2026-05-06 06:13 | 45.76434 | 23.20010 | 40013 ft | 460 kts | 297° |
| 2026-05-06 06:13 | 45.79292 | 23.11785 | 40013 ft | 460 kts | 297° |
| 2026-05-06 06:14 | 45.82138 | 23.03568 | 40014 ft | 460 kts | 297° |
| 2026-05-06 06:14 | 45.84964 | 22.95385 | 40015 ft | 460 kts | 297° |
| 2026-05-06 06:15 | 45.87798 | 22.87150 | 40014 ft | 460 kts | 297° |
| 2026-05-06 06:15 | 45.90625 | 22.78915 | 40012 ft | 460 kts | 296° |
| 2026-05-06 06:16 | 45.93444 | 22.70677 | 40014 ft | 459 kts | 296° |
| 2026-05-06 06:16 | 45.96257 | 22.62430 | 40009 ft | 459 kts | 296° |
| 2026-05-06 06:17 | 45.99064 | 22.54172 | 40013 ft | 459 kts | 296° |
| 2026-05-06 06:17 | 46.01843 | 22.45972 | 40013 ft | 459 kts | 296° |
| 2026-05-06 06:18 | 46.04650 | 22.37662 | 40013 ft | 459 kts | 296° |
| 2026-05-06 06:18 | 46.07421 | 22.29437 | 40012 ft | 459 kts | 296° |
| 2026-05-06 06:19 | 46.10205 | 22.21147 | 40007 ft | 459 kts | 296° |
| 2026-05-06 06:19 | 46.12961 | 22.12913 | 40006 ft | 458 kts | 296° |
| 2026-05-06 06:20 | 46.15725 | 22.04625 | 40006 ft | 458 kts | 295° |
| 2026-05-06 06:20 | 46.18478 | 21.96349 | 40004 ft | 458 kts | 295° |
| 2026-05-06 06:21 | 46.21230 | 21.88049 | 40002 ft | 458 kts | 295° |
| 2026-05-06 06:21 | 46.23974 | 21.79746 | 40005 ft | 458 kts | 295° |
| 2026-05-06 06:22 | 46.26704 | 21.71457 | 40005 ft | 457 kts | 295° |
| 2026-05-06 06:22 | 46.29434 | 21.63144 | 40003 ft | 457 kts | 295° |
| 2026-05-06 06:23 | 46.32156 | 21.54829 | 40005 ft | 457 kts | 295° |
| 2026-05-06 06:23 | 46.34868 | 21.46517 | 40007 ft | 457 kts | 295° |
| 2026-05-06 06:24 | 46.37563 | 21.38231 | 40006 ft | 456 kts | 295° |
| 2026-05-06 06:24 | 46.40259 | 21.29913 | 40007 ft | 456 kts | 294° |
| 2026-05-06 06:25 | 46.42955 | 21.21569 | 40002 ft | 456 kts | 294° |
| 2026-05-06 06:26 | 46.46956 | 21.09138 | 39995 ft | 455 kts | 294° |
| 2026-05-06 06:26 | 46.49627 | 21.00807 | 39991 ft | 455 kts | 294° |
| 2026-05-06 06:27 | 46.52291 | 20.92466 | 39992 ft | 454 kts | 294° |
| 2026-05-06 06:27 | 46.54929 | 20.84185 | 39985 ft | 454 kts | 294° |
| 2026-05-06 06:28 | 46.57575 | 20.75848 | 39986 ft | 454 kts | 294° |
| 2026-05-06 06:28 | 46.60210 | 20.67522 | 39985 ft | 453 kts | 294° |
| 2026-05-06 06:29 | 46.62842 | 20.59174 | 39981 ft | 453 kts | 293° |
| 2026-05-06 06:29 | 46.65469 | 20.50817 | 39982 ft | 453 kts | 293° |
| 2026-05-06 06:30 | 46.68068 | 20.42521 | 39976 ft | 453 kts | 293° |
| 2026-05-06 06:30 | 46.70683 | 20.34147 | 39978 ft | 453 kts | 293° |
| 2026-05-06 06:31 | 46.73288 | 20.25780 | 39971 ft | 453 kts | 293° |
| 2026-05-06 06:31 | 46.75889 | 20.17394 | 39971 ft | 453 kts | 293° |
| 2026-05-06 06:32 | 46.78463 | 20.09070 | 39971 ft | 453 kts | 292° |
| 2026-05-06 06:32 | 46.81051 | 20.00670 | 39970 ft | 453 kts | 292° |
| 2026-05-06 06:33 | 46.83628 | 19.92280 | 39966 ft | 453 kts | 292° |
| 2026-05-06 06:33 | 46.86205 | 19.83861 | 39968 ft | 453 kts | 292° |
| 2026-05-06 06:34 | 46.88772 | 19.75447 | 39968 ft | 453 kts | 292° |
| 2026-05-06 06:34 | 46.91322 | 19.67058 | 39965 ft | 454 kts | 292° |
| 2026-05-06 06:35 | 46.93882 | 19.58612 | 39965 ft | 454 kts | 292° |
| 2026-05-06 06:35 | 46.96436 | 19.50155 | 39963 ft | 454 kts | 292° |
| 2026-05-06 06:36 | 46.98983 | 19.41695 | 39956 ft | 454 kts | 292° |
| 2026-05-06 06:36 | 47.01528 | 19.33209 | 39951 ft | 455 kts | 291° |
| 2026-05-06 06:37 | 47.04069 | 19.24709 | 39946 ft | 455 kts | 291° |
| 2026-05-06 06:37 | 47.06603 | 19.16200 | 39942 ft | 455 kts | 291° |
| 2026-05-06 06:38 | 47.09132 | 19.07685 | 39941 ft | 455 kts | 291° |
| 2026-05-06 06:38 | 47.11645 | 18.99191 | 39936 ft | 456 kts | 291° |
| 2026-05-06 06:39 | 47.14166 | 18.90643 | 39934 ft | 456 kts | 291° |
| 2026-05-06 06:39 | 47.16680 | 18.82087 | 39933 ft | 456 kts | 291° |
| 2026-05-06 06:40 | 47.19192 | 18.73504 | 39933 ft | 457 kts | 291° |
| 2026-05-06 06:40 | 47.21686 | 18.64957 | 39926 ft | 457 kts | 291° |
| 2026-05-06 06:41 | 47.24188 | 18.56355 | 39928 ft | 457 kts | 290° |
| 2026-05-06 06:41 | 47.26684 | 18.47737 | 39922 ft | 458 kts | 290° |
| 2026-05-06 06:42 | 47.29179 | 18.39096 | 39921 ft | 458 kts | 290° |
| 2026-05-06 06:42 | 47.31667 | 18.30448 | 39919 ft | 458 kts | 290° |
| 2026-05-06 06:43 | 47.34148 | 18.21796 | 39919 ft | 458 kts | 290° |
| 2026-05-06 06:43 | 47.36610 | 18.13174 | 39914 ft | 459 kts | 290° |
| 2026-05-06 06:44 | 47.39085 | 18.04480 | 39914 ft | 459 kts | 290° |
| 2026-05-06 06:44 | 47.41546 | 17.95801 | 39907 ft | 459 kts | 290° |
| 2026-05-06 06:45 | 47.44011 | 17.87082 | 39907 ft | 459 kts | 289° |
| 2026-05-06 06:45 | 47.46451 | 17.78415 | 39909 ft | 459 kts | 289° |
| 2026-05-06 06:46 | 47.48755 | 17.70203 | 39906 ft | 459 kts | 289° |
| 2026-05-06 06:46 | 47.51221 | 17.61383 | 39913 ft | 459 kts | 289° |
| 2026-05-06 06:47 | 47.53658 | 17.52636 | 39917 ft | 459 kts | 289° |
| 2026-05-06 06:47 | 47.56086 | 17.43890 | 39901 ft | 459 kts | 289° |
| 2026-05-06 06:48 | 47.58493 | 17.35184 | 39903 ft | 459 kts | 289° |
| 2026-05-06 06:48 | 47.60905 | 17.26433 | 39901 ft | 459 kts | 289° |
| 2026-05-06 06:49 | 47.63315 | 17.17652 | 39900 ft | 459 kts | 289° |
| 2026-05-06 06:49 | 47.65717 | 17.08866 | 39897 ft | 459 kts | 288° |
| 2026-05-06 06:50 | 47.68098 | 17.00127 | 39904 ft | 459 kts | 288° |
| 2026-05-06 06:50 | 47.70291 | 16.91226 | 39904 ft | 458 kts | 285° |
| 2026-05-06 06:51 | 47.72246 | 16.82581 | 39901 ft | 459 kts | 285° |
| 2026-05-06 06:51 | 47.74219 | 16.73946 | 39899 ft | 459 kts | 285° |
| 2026-05-06 06:52 | 47.76300 | 16.64973 | 39902 ft | 460 kts | 285° |
| 2026-05-06 06:52 | 47.78382 | 16.56022 | 39892 ft | 460 kts | 285° |
| 2026-05-06 06:53 | 47.80465 | 16.47033 | 39890 ft | 460 kts | 285° |
| 2026-05-06 06:53 | 47.82546 | 16.38004 | 39887 ft | 461 kts | 285° |
| 2026-05-06 06:54 | 47.84618 | 16.28974 | 39889 ft | 461 kts | 285° |
| 2026-05-06 06:54 | 47.86337 | 16.21454 | 39890 ft | 462 kts | 285° |
| 2026-05-06 06:55 | 47.88404 | 16.12374 | 39893 ft | 462 kts | 285° |
| 2026-05-06 06:55 | 47.90464 | 16.03288 | 39892 ft | 463 kts | 285° |
| 2026-05-06 06:56 | 47.92517 | 15.94193 | 39890 ft | 463 kts | 285° |
| 2026-05-06 06:56 | 47.94564 | 15.85083 | 39884 ft | 463 kts | 285° |
| 2026-05-06 06:57 | 47.96609 | 15.75951 | 39885 ft | 464 kts | 284° |
| 2026-05-06 06:57 | 47.98632 | 15.66874 | 39878 ft | 464 kts | 284° |
| 2026-05-06 06:58 | 48.00660 | 15.57729 | 39876 ft | 464 kts | 284° |
| 2026-05-06 06:58 | 48.02683 | 15.48570 | 39877 ft | 464 kts | 284° |
| 2026-05-06 06:59 | 48.04698 | 15.39404 | 39871 ft | 464 kts | 284° |
| 2026-05-06 06:59 | 48.06706 | 15.30233 | 39868 ft | 464 kts | 284° |
| 2026-05-06 07:00 | 48.08704 | 15.21063 | 39871 ft | 463 kts | 284° |
| 2026-05-06 07:00 | 48.10682 | 15.11958 | 39865 ft | 462 kts | 284° |
| 2026-05-06 07:01 | 48.12661 | 15.02800 | 39866 ft | 461 kts | 284° |
| 2026-05-06 07:01 | 48.14625 | 14.93667 | 39867 ft | 460 kts | 284° |
| 2026-05-06 07:02 | 48.16577 | 14.84551 | 39864 ft | 459 kts | 283° |
| 2026-05-06 07:02 | 48.18515 | 14.75456 | 39862 ft | 458 kts | 283° |
| 2026-05-06 07:03 | 48.20448 | 14.66350 | 39862 ft | 458 kts | 283° |
| 2026-05-06 07:03 | 48.22372 | 14.57244 | 39859 ft | 458 kts | 283° |
| 2026-05-06 07:04 | 48.24412 | 14.48197 | 39858 ft | 461 kts | 289° |
| 2026-05-06 07:04 | 48.27284 | 14.39617 | 39857 ft | 464 kts | 293° |
| 2026-05-06 07:05 | 48.30323 | 14.31068 | 39850 ft | 464 kts | 293° |
| 2026-05-06 07:05 | 48.33376 | 14.22509 | 39857 ft | 464 kts | 293° |
| 2026-05-06 07:06 | 48.36411 | 14.13941 | 39855 ft | 464 kts | 293° |
| 2026-05-06 07:06 | 48.39435 | 14.05352 | 39854 ft | 465 kts | 293° |
| 2026-05-06 07:07 | 48.42461 | 13.96728 | 39850 ft | 464 kts | 292° |
| 2026-05-06 07:07 | 48.45452 | 13.88171 | 39849 ft | 465 kts | 292° |
| 2026-05-06 07:08 | 48.48457 | 13.79546 | 39847 ft | 465 kts | 292° |
| 2026-05-06 07:08 | 48.51463 | 13.70892 | 39841 ft | 465 kts | 292° |
| 2026-05-06 07:09 | 48.54461 | 13.62225 | 39848 ft | 466 kts | 292° |
| 2026-05-06 07:09 | 48.57454 | 13.53549 | 39845 ft | 465 kts | 292° |
| 2026-05-06 07:10 | 48.59915 | 13.44644 | 39846 ft | 461 kts | 285° |
| 2026-05-06 07:10 | 48.62132 | 13.35539 | 39845 ft | 462 kts | 285° |
| 2026-05-06 07:11 | 48.64314 | 13.26400 | 39844 ft | 462 kts | 285° |
| 2026-05-06 07:11 | 48.66495 | 13.17230 | 39846 ft | 463 kts | 285° |
| 2026-05-06 07:12 | 48.68677 | 13.08052 | 39846 ft | 463 kts | 285° |
| 2026-05-06 07:12 | 48.70859 | 12.98863 | 39846 ft | 464 kts | 285° |
| 2026-05-06 07:13 | 48.73011 | 12.89699 | 39845 ft | 464 kts | 285° |
| 2026-05-06 07:13 | 48.75167 | 12.80480 | 39845 ft | 464 kts | 285° |
| 2026-05-06 07:14 | 48.77320 | 12.71243 | 39849 ft | 464 kts | 285° |
| 2026-05-06 07:14 | 48.79474 | 12.61990 | 39849 ft | 465 kts | 285° |
| 2026-05-06 07:15 | 48.81605 | 12.52779 | 39847 ft | 465 kts | 285° |
| 2026-05-06 07:15 | 48.83731 | 12.43521 | 39850 ft | 465 kts | 285° |
| 2026-05-06 07:16 | 48.85856 | 12.34235 | 39847 ft | 466 kts | 285° |
| 2026-05-06 07:16 | 48.87980 | 12.24922 | 39857 ft | 466 kts | 285° |
| 2026-05-06 07:17 | 48.90078 | 12.15576 | 39843 ft | 466 kts | 284° |
| 2026-05-06 07:17 | 48.92067 | 12.06185 | 39843 ft | 466 kts | 284° |
| 2026-05-06 07:18 | 48.94026 | 11.96852 | 39839 ft | 466 kts | 284° |
| 2026-05-06 07:18 | 48.96009 | 11.87458 | 39836 ft | 467 kts | 284° |
| 2026-05-06 07:19 | 48.98001 | 11.78020 | 39835 ft | 467 kts | 284° |
| 2026-05-06 07:19 | 48.99970 | 11.68653 | 39832 ft | 467 kts | 284° |
| 2026-05-06 07:20 | 49.01942 | 11.59225 | 39829 ft | 467 kts | 284° |
| 2026-05-06 07:20 | 49.03906 | 11.49787 | 39827 ft | 467 kts | 284° |
| 2026-05-06 07:21 | 49.05862 | 11.40345 | 39826 ft | 466 kts | 284° |
| 2026-05-06 07:21 | 49.07812 | 11.30887 | 39824 ft | 466 kts | 284° |
| 2026-05-06 07:22 | 49.09749 | 11.21450 | 39818 ft | 466 kts | 284° |
| 2026-05-06 07:22 | 49.11669 | 11.12044 | 39825 ft | 466 kts | 284° |
| 2026-05-06 07:23 | 49.13592 | 11.02582 | 39825 ft | 467 kts | 284° |
| 2026-05-06 07:23 | 49.15508 | 10.93113 | 39831 ft | 467 kts | 284° |
| 2026-05-06 07:24 | 49.17422 | 10.83606 | 39831 ft | 467 kts | 283° |
| 2026-05-06 07:24 | 49.19314 | 10.74159 | 39831 ft | 467 kts | 283° |
| 2026-05-06 07:25 | 49.21142 | 10.64636 | 39825 ft | 467 kts | 282° |
| 2026-05-06 07:25 | 49.22819 | 10.55021 | 39828 ft | 467 kts | 281° |
| 2026-05-06 07:26 | 49.24481 | 10.45438 | 39827 ft | 467 kts | 282° |
| 2026-05-06 07:26 | 49.26169 | 10.35816 | 39829 ft | 468 kts | 282° |
| 2026-05-06 07:27 | 49.27861 | 10.26197 | 39810 ft | 468 kts | 282° |
| 2026-05-06 07:27 | 49.29544 | 10.16578 | 39808 ft | 468 kts | 282° |
| 2026-05-06 07:28 | 49.31223 | 10.06927 | 39803 ft | 468 kts | 282° |
| 2026-05-06 07:28 | 49.33711 | 9.92519 | 39802 ft | 468 kts | 281° |
| 2026-05-06 07:29 | 49.35367 | 9.82863 | 39803 ft | 468 kts | 281° |
| 2026-05-06 07:29 | 49.37013 | 9.73209 | 39801 ft | 468 kts | 281° |
| 2026-05-06 07:30 | 49.38657 | 9.63512 | 39799 ft | 469 kts | 281° |
| 2026-05-06 07:30 | 49.40285 | 9.53863 | 39799 ft | 469 kts | 281° |
| 2026-05-06 07:31 | 49.41910 | 9.44168 | 39797 ft | 470 kts | 281° |
| 2026-05-06 07:31 | 49.43536 | 9.34415 | 39793 ft | 470 kts | 281° |
| 2026-05-06 07:32 | 49.45151 | 9.24675 | 39792 ft | 470 kts | 281° |
| 2026-05-06 07:32 | 49.46759 | 9.14919 | 39790 ft | 471 kts | 281° |
| 2026-05-06 07:33 | 49.48233 | 9.05093 | 39788 ft | 471 kts | 278° |
| 2026-05-06 07:33 | 49.49537 | 8.95278 | 39792 ft | 471 kts | 278° |
| 2026-05-06 07:34 | 49.50863 | 8.85383 | 39794 ft | 472 kts | 279° |
| 2026-05-06 07:34 | 49.52211 | 8.75499 | 39796 ft | 472 kts | 279° |
| 2026-05-06 07:35 | 49.53567 | 8.65585 | 39801 ft | 473 kts | 279° |
| 2026-05-06 07:35 | 49.54916 | 8.55648 | 39801 ft | 473 kts | 279° |
| 2026-05-06 07:36 | 49.56246 | 8.45774 | 39801 ft | 474 kts | 279° |
| 2026-05-06 07:36 | 49.57575 | 8.35834 | 39798 ft | 474 kts | 279° |
| 2026-05-06 07:37 | 49.58896 | 8.25875 | 39789 ft | 474 kts | 279° |
| 2026-05-06 07:37 | 49.60213 | 8.15891 | 39783 ft | 474 kts | 278° |
| 2026-05-06 07:38 | 49.61519 | 8.05906 | 39777 ft | 475 kts | 278° |
| 2026-05-06 07:38 | 49.62599 | 7.97605 | 39772 ft | 475 kts | 278° |
| 2026-05-06 07:39 | 49.63891 | 7.87605 | 39769 ft | 475 kts | 278° |
| 2026-05-06 07:39 | 49.65180 | 7.77555 | 39755 ft | 476 kts | 278° |
| 2026-05-06 07:40 | 49.66448 | 7.67589 | 39759 ft | 476 kts | 278° |
| 2026-05-06 07:40 | 49.67714 | 7.57577 | 39776 ft | 476 kts | 278° |
| 2026-05-06 07:41 | 49.68977 | 7.47509 | 39759 ft | 476 kts | 278° |
| 2026-05-06 07:41 | 49.70229 | 7.37457 | 39777 ft | 477 kts | 278° |
| 2026-05-06 07:42 | 49.71474 | 7.27390 | 39762 ft | 477 kts | 278° |
| 2026-05-06 07:42 | 49.72705 | 7.17354 | 39771 ft | 478 kts | 278° |
| 2026-05-06 07:43 | 49.73934 | 7.07267 | 39760 ft | 478 kts | 278° |
| 2026-05-06 07:43 | 49.75155 | 6.97155 | 39750 ft | 478 kts | 278° |
| 2026-05-06 07:44 | 49.76362 | 6.87090 | 39742 ft | 478 kts | 278° |
| 2026-05-06 07:44 | 49.77566 | 6.76961 | 39741 ft | 478 kts | 278° |
| 2026-05-06 07:45 | 49.78761 | 6.66839 | 39744 ft | 478 kts | 278° |
| 2026-05-06 07:45 | 49.79949 | 6.56695 | 39751 ft | 478 kts | 278° |
| 2026-05-06 07:46 | 49.81053 | 6.46549 | 39744 ft | 477 kts | 273° |
| 2026-05-06 07:46 | 49.80777 | 6.36434 | 39769 ft | 472 kts | 258° |
| 2026-05-06 07:47 | 49.79548 | 6.26451 | 39766 ft | 472 kts | 256° |
| 2026-05-06 07:47 | 49.78185 | 6.16514 | 39773 ft | 472 kts | 256° |
| 2026-05-06 07:48 | 49.76823 | 6.06567 | 39770 ft | 473 kts | 256° |
| 2026-05-06 07:48 | 49.75473 | 5.96598 | 39612 ft | 473 kts | 256° |
| 2026-05-06 07:49 | 49.74801 | 5.91629 | 39378 ft | 474 kts | 256° |
| 2026-05-06 07:49 | 49.74017 | 5.86670 | 39155 ft | 474 kts | 251° |
| 2026-05-06 07:49 | 49.72981 | 5.81831 | 38939 ft | 474 kts | 249° |
| 2026-05-06 07:49 | 49.71898 | 5.77042 | 38719 ft | 474 kts | 249° |
| 2026-05-06 07:50 | 49.70783 | 5.72232 | 38499 ft | 474 kts | 249° |
| 2026-05-06 07:50 | 49.69676 | 5.67511 | 38126 ft | 472 kts | 248° |
| 2026-05-06 07:50 | 49.68542 | 5.62693 | 37532 ft | 470 kts | 248° |
| 2026-05-06 07:50 | 49.67430 | 5.57970 | 36898 ft | 470 kts | 249° |
| 2026-05-06 07:51 | 49.66326 | 5.53280 | 36242 ft | 470 kts | 249° |
| 2026-05-06 07:51 | 49.65210 | 5.48539 | 35575 ft | 470 kts | 249° |
| 2026-05-06 07:51 | 49.64093 | 5.43799 | 34887 ft | 471 kts | 249° |
| 2026-05-06 07:51 | 49.62971 | 5.39046 | 34316 ft | 469 kts | 249° |
| 2026-05-06 07:52 | 49.61867 | 5.34336 | 33826 ft | 465 kts | 249° |
| 2026-05-06 07:52 | 49.60825 | 5.29615 | 33241 ft | 462 kts | 250° |
| 2026-05-06 07:52 | 49.59869 | 5.24921 | 32706 ft | 458 kts | 254° |
| 2026-05-06 07:52 | 49.59293 | 5.20107 | 32204 ft | 455 kts | 263° |
| 2026-05-06 07:53 | 49.59194 | 5.15231 | 31691 ft | 452 kts | 269° |
| 2026-05-06 07:53 | 49.59233 | 5.10408 | 31197 ft | 449 kts | 269° |
| 2026-05-06 07:53 | 49.59277 | 5.05677 | 30700 ft | 445 kts | 269° |
| 2026-05-06 07:53 | 49.59318 | 5.00921 | 30203 ft | 442 kts | 269° |
| 2026-05-06 07:54 | 49.59355 | 4.96214 | 29685 ft | 439 kts | 269° |
| 2026-05-06 07:54 | 49.59389 | 4.91520 | 29155 ft | 435 kts | 269° |
| 2026-05-06 07:54 | 49.59421 | 4.86874 | 28662 ft | 430 kts | 269° |
| 2026-05-06 07:54 | 49.59450 | 4.82292 | 28182 ft | 427 kts | 269° |
| 2026-05-06 07:55 | 49.59478 | 4.77717 | 27697 ft | 424 kts | 269° |
| 2026-05-06 07:55 | 49.59507 | 4.73180 | 27267 ft | 420 kts | 270° |
| 2026-05-06 07:55 | 49.59529 | 4.68688 | 26832 ft | 420 kts | 270° |
| 2026-05-06 07:55 | 49.59548 | 4.64235 | 26394 ft | 419 kts | 270° |
| 2026-05-06 07:56 | 49.59567 | 4.59755 | 25953 ft | 417 kts | 270° |
| 2026-05-06 07:56 | 49.59584 | 4.55295 | 25519 ft | 415 kts | 270° |
| 2026-05-06 07:56 | 49.59600 | 4.50870 | 25082 ft | 412 kts | 270° |
| 2026-05-06 07:56 | 49.59615 | 4.46476 | 24654 ft | 410 kts | 270° |
| 2026-05-06 07:57 | 49.59628 | 4.42090 | 24221 ft | 406 kts | 270° |
| 2026-05-06 07:57 | 49.59638 | 4.37753 | 23794 ft | 403 kts | 270° |
| 2026-05-06 07:57 | 49.59647 | 4.33467 | 23370 ft | 399 kts | 270° |
| 2026-05-06 07:57 | 49.59655 | 4.29200 | 22906 ft | 395 kts | 270° |
| 2026-05-06 07:58 | 49.59661 | 4.24978 | 22484 ft | 392 kts | 270° |
| 2026-05-06 07:58 | 49.59666 | 4.20791 | 22076 ft | 390 kts | 270° |
| 2026-05-06 07:58 | 49.59669 | 4.16614 | 21667 ft | 388 kts | 270° |
| 2026-05-06 07:58 | 49.59671 | 4.12469 | 21259 ft | 385 kts | 270° |
| 2026-05-06 07:59 | 49.59534 | 4.08359 | 20865 ft | 383 kts | 261° |
| 2026-05-06 07:59 | 49.58714 | 4.04492 | 20464 ft | 379 kts | 242° |
| 2026-05-06 07:59 | 49.57354 | 4.01043 | 20073 ft | 376 kts | 236° |
| 2026-05-06 07:59 | 49.55930 | 3.97724 | 19673 ft | 374 kts | 236° |
| 2026-05-06 08:00 | 49.54508 | 3.94395 | 19300 ft | 371 kts | 236° |
| 2026-05-06 08:00 | 49.53097 | 3.91076 | 18908 ft | 368 kts | 236° |
| 2026-05-06 08:00 | 49.51703 | 3.87788 | 18520 ft | 366 kts | 236° |
| 2026-05-06 08:00 | 49.50318 | 3.84522 | 18123 ft | 362 kts | 236° |
| 2026-05-06 08:01 | 49.48951 | 3.81296 | 17714 ft | 357 kts | 236° |
| 2026-05-06 08:01 | 49.47675 | 3.78038 | 17344 ft | 357 kts | 243° |
| 2026-05-06 08:01 | 49.46855 | 3.74449 | 16963 ft | 355 kts | 254° |
| 2026-05-06 08:01 | 49.46254 | 3.70825 | 16595 ft | 354 kts | 255° |
| 2026-05-06 08:02 | 49.45648 | 3.67125 | 16214 ft | 352 kts | 255° |
| 2026-05-06 08:02 | 49.45052 | 3.63535 | 15848 ft | 350 kts | 255° |
| 2026-05-06 08:02 | 49.44453 | 3.59929 | 15642 ft | 347 kts | 255° |
| 2026-05-06 08:02 | 49.43848 | 3.56341 | 15467 ft | 347 kts | 255° |
| 2026-05-06 08:03 | 49.43241 | 3.52766 | 15275 ft | 346 kts | 255° |
| 2026-05-06 08:03 | 49.42631 | 3.49188 | 15080 ft | 345 kts | 255° |
| 2026-05-06 08:03 | 49.42002 | 3.45639 | 14874 ft | 344 kts | 252° |
| 2026-05-06 08:03 | 49.41176 | 3.42213 | 14724 ft | 342 kts | 248° |
| 2026-05-06 08:04 | 49.40272 | 3.38837 | 14591 ft | 341 kts | 248° |
| 2026-05-06 08:04 | 49.39366 | 3.35474 | 14426 ft | 341 kts | 248° |
| 2026-05-06 08:04 | 49.38462 | 3.32111 | 14277 ft | 340 kts | 248° |
| 2026-05-06 08:04 | 49.37559 | 3.28754 | 14121 ft | 339 kts | 248° |
| 2026-05-06 08:05 | 49.36657 | 3.25398 | 13972 ft | 339 kts | 248° |
| 2026-05-06 08:05 | 49.35761 | 3.22068 | 13819 ft | 338 kts | 248° |
| 2026-05-06 08:05 | 49.34865 | 3.18741 | 13670 ft | 337 kts | 248° |
| 2026-05-06 08:05 | 49.33971 | 3.15424 | 13498 ft | 336 kts | 248° |
| 2026-05-06 08:06 | 49.33079 | 3.12122 | 13345 ft | 335 kts | 248° |
| 2026-05-06 08:06 | 49.32188 | 3.08826 | 13204 ft | 335 kts | 248° |
| 2026-05-06 08:06 | 49.31294 | 3.05523 | 13053 ft | 334 kts | 248° |
| 2026-05-06 08:06 | 49.30406 | 3.02248 | 12907 ft | 333 kts | 248° |
| 2026-05-06 08:07 | 49.29530 | 2.99020 | 12754 ft | 332 kts | 248° |
| 2026-05-06 08:07 | 49.28628 | 2.95704 | 12606 ft | 332 kts | 248° |
| 2026-05-06 08:07 | 49.27754 | 2.92491 | 12466 ft | 331 kts | 248° |
| 2026-05-06 08:07 | 49.26867 | 2.89239 | 12299 ft | 331 kts | 248° |
| 2026-05-06 08:08 | 49.25977 | 2.85981 | 12167 ft | 331 kts | 248° |
| 2026-05-06 08:08 | 49.25090 | 2.82736 | 12014 ft | 330 kts | 248° |
| 2026-05-06 08:08 | 49.24322 | 2.79932 | 11912 ft | 330 kts | 248° |
| 2026-05-06 08:08 | 49.23435 | 2.76700 | 11872 ft | 329 kts | 248° |
| 2026-05-06 08:09 | 49.22545 | 2.73464 | 11876 ft | 329 kts | 248° |
| 2026-05-06 08:09 | 49.21656 | 2.70227 | 11863 ft | 329 kts | 248° |
| 2026-05-06 08:09 | 49.20784 | 2.67058 | 11380 ft | 329 kts | 248° |
| 2026-05-06 08:09 | 49.19902 | 2.63857 | 11092 ft | 321 kts | 248° |
| 2026-05-06 08:10 | 49.19048 | 2.60765 | 10957 ft | 309 kts | 248° |
| 2026-05-06 08:10 | 49.18288 | 2.57764 | 10817 ft | 297 kts | 254° |
| 2026-05-06 08:10 | 49.18005 | 2.54690 | 10636 ft | 289 kts | 268° |
| 2026-05-06 08:10 | 49.17948 | 2.51617 | 10391 ft | 289 kts | 269° |
| 2026-05-06 08:11 | 49.17900 | 2.48585 | 10140 ft | 290 kts | 269° |
| 2026-05-06 08:11 | 49.17842 | 2.45454 | 9880 ft | 290 kts | 268° |
| 2026-05-06 08:11 | 49.17779 | 2.42372 | 9607 ft | 290 kts | 268° |
| 2026-05-06 08:11 | 49.17711 | 2.39303 | 9344 ft | 289 kts | 269° |
| 2026-05-06 08:12 | 49.17641 | 2.36238 | 9100 ft | 287 kts | 269° |
| 2026-05-06 08:12 | 49.17495 | 2.33195 | 8863 ft | 287 kts | 265° |
| 2026-05-06 08:12 | 49.17270 | 2.30174 | 8613 ft | 286 kts | 265° |
| 2026-05-06 08:12 | 49.17053 | 2.27199 | 8365 ft | 285 kts | 266° |
| 2026-05-06 08:13 | 49.16844 | 2.24181 | 8112 ft | 284 kts | 266° |
| 2026-05-06 08:13 | 49.16643 | 2.21196 | 7872 ft | 282 kts | 266° |
| 2026-05-06 08:13 | 49.16439 | 2.18216 | 7616 ft | 281 kts | 266° |
| 2026-05-06 08:13 | 49.15940 | 2.15329 | 7376 ft | 284 kts | 246° |
| 2026-05-06 08:14 | 49.14688 | 2.13013 | 7142 ft | 287 kts | 218° |
| 2026-05-06 08:14 | 49.12866 | 2.11824 | 6879 ft | 288 kts | 189° |
| 2026-05-06 08:14 | 49.10905 | 2.11907 | 6638 ft | 285 kts | 170° |
| 2026-05-06 08:14 | 49.08977 | 2.12286 | 6541 ft | 273 kts | 173° |
| 2026-05-06 08:15 | 49.07123 | 2.12571 | 6470 ft | 261 kts | 174° |
| 2026-05-06 08:15 | 49.05366 | 2.12823 | 6373 ft | 244 kts | 174° |
| 2026-05-06 08:15 | 49.03727 | 2.13051 | 6282 ft | 232 kts | 174° |
| 2026-05-06 08:15 | 49.02152 | 2.13267 | 6185 ft | 223 kts | 174° |
| 2026-05-06 08:16 | 49.00623 | 2.13474 | 6097 ft | 220 kts | 174° |
| 2026-05-06 08:16 | 48.99096 | 2.13695 | 5993 ft | 217 kts | 173° |
| 2026-05-06 08:16 | 48.97815 | 2.14567 | 5923 ft | 196 kts | 131° |
| 2026-05-06 08:16 | 48.97274 | 2.16333 | 5849 ft | 179 kts | 94° |
| 2026-05-06 08:17 | 48.97246 | 2.18180 | 5633 ft | 172 kts | 80° |
| 2026-05-06 08:17 | 48.97340 | 2.19983 | 5335 ft | 170 kts | 81° |
| 2026-05-06 08:17 | 48.97427 | 2.21748 | 5022 ft | 165 kts | 79° |
| 2026-05-06 08:17 | 48.97520 | 2.23462 | 4747 ft | 161 kts | 79° |
| 2026-05-06 08:18 | 48.97610 | 2.25147 | 4491 ft | 157 kts | 79° |
| 2026-05-06 08:18 | 48.97694 | 2.26757 | 4269 ft | 149 kts | 79° |
| 2026-05-06 08:18 | 48.97778 | 2.28301 | 4064 ft | 143 kts | 78° |
| 2026-05-06 08:18 | 48.97858 | 2.29797 | 3890 ft | 142 kts | 79° |
| 2026-05-06 08:19 | 48.97937 | 2.31288 | 3688 ft | 141 kts | 79° |
| 2026-05-06 08:19 | 48.98016 | 2.32768 | 3498 ft | 140 kts | 78° |
| 2026-05-06 08:19 | 48.98096 | 2.34246 | 3309 ft | 140 kts | 78° |
| 2026-05-06 08:19 | 48.98175 | 2.35717 | 3129 ft | 139 kts | 78° |
| 2026-05-06 08:20 | 48.98252 | 2.37175 | 2930 ft | 138 kts | 78° |
| 2026-05-06 08:20 | 48.98330 | 2.38626 | 2739 ft | 137 kts | 78° |
| 2026-05-06 08:20 | 48.98406 | 2.40040 | 2559 ft | 135 kts | 78° |
| 2026-05-06 08:20 | 48.98481 | 2.41456 | 2384 ft | 134 kts | 77° |
| 2026-05-06 08:21 | 48.98557 | 2.42865 | 2185 ft | 133 kts | 77° |
| 2026-05-06 08:21 | 48.98632 | 2.44267 | 2000 ft | 133 kts | 77° |
| 2026-05-06 08:21 | 48.98709 | 2.45685 | 1821 ft | 135 kts | 78° |
| 2026-05-06 08:21 | 48.98784 | 2.47110 | 1632 ft | 135 kts | 77° |
| 2026-05-06 08:22 | 48.98861 | 2.48535 | 1454 ft | 135 kts | 79° |
| 2026-05-06 08:22 | 48.98937 | 2.49972 | 1251 ft | 137 kts | 78° |
| 2026-05-06 08:22 | 48.99025 | 2.51419 | 1072 ft | 137 kts | 79° |
| 2026-05-06 08:22 | 48.99096 | 2.52869 | 833 ft | 135 kts | 82° |
| 2026-05-06 08:23 | 48.99157 | 2.54285 | 666 ft | 137 kts | 79° |
| 2026-05-06 08:23 | 48.99243 | 2.55722 | 500 ft | 136 kts | 79° |
| 2026-05-06 08:23 | 48.99317 | 2.57168 | 372 ft | 136 kts | 81° |
| 2026-05-06 08:23 | 48.99392 | 2.58433 | 361 ft | 85 kts | 85° |
| 2026-05-06 08:24 | 48.99419 | 2.58943 | 360 ft | 33 kts | 85° |
| 2026-05-06 08:24 | 48.99470 | 2.59255 | 362 ft | 20 kts | 64° |
| 2026-05-06 08:24 | 48.99524 | 2.59445 | 367 ft | 20 kts | 68° |
| 2026-05-06 08:24 | 48.99575 | 2.59620 | 367 ft | 17 kts | 63° |
| 2026-05-06 08:25 | 48.99652 | 2.59691 | 366 ft | 11 kts | 9° |
| 2026-05-06 08:25 | 48.99729 | 2.59688 | 360 ft | 11 kts | 357° |
| 2026-05-06 08:25 | 48.99820 | 2.59676 | 367 ft | 15 kts | 355° |
| 2026-05-06 08:25 | 48.99924 | 2.59662 | 367 ft | 16 kts | 355° |
| 2026-05-06 08:26 | 49.00040 | 2.59642 | 366 ft | 17 kts | 342° |
| 2026-05-06 08:26 | 49.00076 | 2.59493 | 364 ft | 16 kts | 260° |
| 2026-05-06 08:26 | 49.00065 | 2.59315 | 365 ft | 17 kts | 268° |
| 2026-05-06 08:26 | 49.00059 | 2.59188 | 367 ft | 19 kts | 265° |
| 2026-05-06 08:27 | 49.00049 | 2.58973 | 366 ft | 19 kts | 265° |
| 2026-05-06 08:27 | 49.00046 | 2.58812 | 367 ft | 12 kts | 285° |
| 2026-05-06 08:27 | 49.00116 | 2.58763 | 366 ft | 13 kts | 2° |
| 2026-05-06 08:27 | 49.00203 | 2.58759 | 360 ft | 13 kts | 357° |
| 2026-05-06 08:28 | 49.00276 | 2.58752 | 360 ft | 2 kts | 355° |
| 2026-05-06 08:28 | 49.00277 | 2.58751 | 360 ft | 1 kts | 351° |
| 2026-05-06 08:28 | 49.00284 | 2.58729 | 368 ft | 3 kts | 293° |
| 2026-05-06 08:28 | 49.00288 | 2.58686 | 367 ft | 4 kts | 273° |
| 2026-05-06 08:29 | 49.00287 | 2.58639 | 362 ft | 1 kts | 266° |
| 2026-05-06 08:29 | 49.00287 | 2.58630 | 361 ft | 1 kts | 266° |
| 2026-05-06 08:29 | 49.00286 | 2.58613 | 361 ft | 0 kts | 266° |
| 2026-05-06 08:30 | 49.00286 | 2.58612 | 361 ft | 0 kts | 265° |